createdAt,value
2022-11-30T00:01:37.409Z,97479.81
2022-11-30T00:06:43.025Z,97477.94
2022-11-30T00:11:46.527Z,97481.69
2022-11-30T00:16:49.879Z,97479.22
2022-11-30T00:21:53.294Z,97480.53
2022-11-30T00:26:56.942Z,97488.84
2022-11-30T00:32:00.025Z,97482.66
2022-11-30T00:37:04.413Z,97490.16
2022-11-30T00:42:07.800Z,97493.97
2022-11-30T00:47:11.120Z,97489.69
2022-11-30T00:52:14.206Z,97487.25
2022-11-30T00:57:17.192Z,97487.25
2022-11-30T01:02:21.910Z,97494.25
2022-11-30T01:07:26.124Z,97486.44
2022-11-30T01:12:29.219Z,97495.53
2022-11-30T01:17:32.164Z,97477.78
2022-11-30T01:22:36.193Z,97485.84
2022-11-30T01:27:41.790Z,97468.97
2022-11-30T01:32:45.299Z,97491.72
2022-11-30T01:37:48.942Z,97485.28
2022-11-30T01:42:52.468Z,97492.03
2022-11-30T01:47:57.876Z,97491.47
2022-11-30T01:53:03.268Z,97492.28
2022-11-30T01:58:16.885Z,97494.16
2022-11-30T02:03:21.411Z,97505.72
2022-11-30T02:08:26.680Z,97506.53
2022-11-30T02:13:30.963Z,97508.41
2022-11-30T02:18:47.854Z,97496.03
2022-11-30T02:24:09.440Z,97506.78
2022-11-30T02:29:25.103Z,97495.47
2022-11-30T02:34:33.132Z,97492.28
2022-11-30T02:39:36.541Z,97494.16
2022-11-30T02:44:47.809Z,97499.03
2022-11-30T02:49:55.272Z,97510.63
2022-11-30T02:55:11.251Z,97511.44
2022-11-30T03:00:21.444Z,97519.00
2022-11-30T03:05:25.239Z,97522.75
2022-11-30T03:10:30.327Z,97519.81
2022-11-30T03:15:34.185Z,97523.31
2022-11-30T03:20:41.955Z,97535.94
2022-11-30T03:25:45.427Z,97544.81
2022-11-30T03:30:51.932Z,97544.81
2022-11-30T03:36:07.856Z,97566.41
2022-11-30T03:41:14.927Z,97567.47
2022-11-30T03:46:23.211Z,97567.47
2022-11-30T03:51:26.739Z,97580.66
2022-11-30T03:56:30.408Z,97582.38
2022-11-30T04:01:35.059Z,97592.69
2022-11-30T04:06:43.341Z,97588.31
2022-11-30T04:11:46.610Z,97593.97
2022-11-30T04:16:50.306Z,97602.47
2022-11-30T04:21:55.031Z,97593.41
2022-11-30T04:26:58.294Z,97598.00
2022-11-30T04:32:03.230Z,97606.13
2022-11-30T04:37:06.932Z,97609.47
2022-11-30T04:42:10.330Z,97617.16
2022-11-30T04:47:13.813Z,97620.25
2022-11-30T04:52:17.325Z,97615.81
2022-11-30T04:57:20.623Z,97620.84
2022-11-30T05:02:23.770Z,97622.97
2022-11-30T05:07:26.709Z,97630.31
2022-11-30T05:12:31.421Z,97625.94
2022-11-30T05:17:35.035Z,97628.59
2022-11-30T05:22:38.485Z,97650.47
2022-11-30T05:27:41.831Z,97645.16
2022-11-30T05:32:45.361Z,97650.94
2022-11-30T05:37:48.751Z,97656.44
2022-11-30T05:42:57.081Z,97659.53
2022-11-30T05:48:00.530Z,97671.06
2022-11-30T05:53:05.297Z,97659.06
2022-11-30T05:58:08.640Z,97673.00
2022-11-30T06:03:12.500Z,97675.22
2022-11-30T06:08:15.792Z,97677.66
2022-11-30T06:13:19.225Z,97684.84
2022-11-30T06:18:22.654Z,97689.06
2022-11-30T06:23:25.914Z,97690.88
2022-11-30T06:28:30.559Z,97695.72
2022-11-30T06:33:35.712Z,97696.56
2022-11-30T06:38:39.247Z,97695.09
2022-11-30T06:43:43.092Z,97696.00
2022-11-30T06:48:49.245Z,97701.19
2022-11-30T06:53:53.237Z,97706.41
2022-11-30T06:58:56.793Z,97708.00
2022-11-30T07:04:00.404Z,97709.28
2022-11-30T07:09:03.735Z,97715.69
2022-11-30T07:14:07.234Z,97720.03
2022-11-30T07:19:10.696Z,97723.50
2022-11-30T07:24:14.893Z,97732.09
2022-11-30T07:29:18.561Z,97724.75
2022-11-30T07:34:22.238Z,97719.09
2022-11-30T07:39:25.840Z,97722.84
2022-11-30T07:44:29.253Z,97718.31
2022-11-30T07:49:32.609Z,97726.28
2022-11-30T07:54:36.005Z,97721.81
2022-11-30T07:59:39.351Z,97724.28
2022-11-30T08:04:42.640Z,97726.28
2022-11-30T08:09:46.173Z,97722.75
2022-11-30T08:15:18.685Z,97714.88
2022-11-30T08:20:13.527Z,97716.56
2022-11-30T08:25:17.039Z,97714.19
2022-11-30T08:30:20.448Z,97708.00
2022-11-30T08:35:23.917Z,97711.00
2022-11-30T08:40:27.274Z,97711.31
2022-11-30T08:45:30.846Z,97707.06
2022-11-30T08:50:34.157Z,97705.44
2022-11-30T08:55:37.608Z,97713.34
2022-11-30T09:00:40.977Z,97711.38
2022-11-30T09:05:44.516Z,97707.19
2022-11-30T09:10:50.345Z,97704.09
2022-11-30T09:15:57.335Z,97701.59
2022-11-30T09:21:02.875Z,97693.75
2022-11-30T09:26:08.963Z,97694.59
2022-11-30T09:31:15.352Z,97692.22
2022-11-30T09:36:22.683Z,97687.88
2022-11-30T09:41:35.087Z,97695.22
2022-11-30T09:46:54.827Z,97684.56
2022-11-30T09:52:04.790Z,97698.22
2022-11-30T09:57:14.303Z,97700.13
2022-11-30T10:02:18.909Z,97691.50
2022-11-30T10:07:37.449Z,97692.91
2022-11-30T10:13:12.799Z,97690.50
2022-11-30T10:18:38.189Z,97694.56
2022-11-30T10:24:21.236Z,97682.09
2022-11-30T10:29:37.985Z,97688.66
2022-11-30T10:34:43.479Z,97684.00
2022-11-30T10:39:55.619Z,97687.25
2022-11-30T10:45:15.783Z,97691.03
2022-11-30T10:50:20.925Z,97693.19
2022-11-30T10:55:35.052Z,97696.69
2022-11-30T11:00:40.338Z,97701.31
2022-11-30T11:05:43.576Z,97705.63
2022-11-30T11:10:49.669Z,97707.16
2022-11-30T11:16:01.074Z,97712.50
2022-11-30T11:21:18.944Z,97709.75
2022-11-30T11:26:26.872Z,97707.16
2022-11-30T11:32:05.641Z,97708.38
2022-11-30T11:37:33.251Z,97714.59
2022-11-30T11:42:42.261Z,97710.25
2022-11-30T11:47:46.575Z,97720.88
2022-11-30T11:52:50.657Z,97712.44
2022-11-30T11:57:58.507Z,97715.97
2022-11-30T12:03:46.192Z,97722.72
2022-11-30T12:09:22.233Z,97721.91
2022-11-30T12:14:26.568Z,97725.69
2022-11-30T12:19:51.972Z,97730.25
2022-11-30T12:25:25.019Z,97729.69
2022-11-30T12:30:46.828Z,97730.50
2022-11-30T12:36:22.148Z,97736.97
2022-11-30T12:41:37.513Z,97741.25
2022-11-30T12:47:01.959Z,97735.59
2022-11-30T12:52:36.349Z,97742.59
2022-11-30T12:58:04.139Z,97751.28
2022-11-30T13:03:10.394Z,97748.06
2022-11-30T13:08:32.110Z,97751.34
2022-11-30T13:13:37.349Z,97753.75
2022-11-30T13:18:43.043Z,97751.56
2022-11-30T13:23:55.729Z,97754.16
2022-11-30T13:29:17.036Z,97757.88
2022-11-30T13:34:29.468Z,97765.09
2022-11-30T13:39:54.581Z,97772.84
2022-11-30T13:45:15.947Z,97770.59
2022-11-30T13:50:39.927Z,97773.78
2022-11-30T13:55:43.204Z,97781.31
2022-11-30T14:01:26.494Z,97777.25
2022-11-30T14:06:41.806Z,97773.53
2022-11-30T14:11:46.565Z,97771.94
2022-11-30T14:16:50.253Z,97782.03
2022-11-30T14:21:55.078Z,97784.16
2022-11-30T14:26:58.935Z,97785.97
2022-11-30T14:32:13.676Z,97794.19
2022-11-30T14:37:26.650Z,97796.44
2022-11-30T14:42:32.762Z,97802.25
2022-11-30T14:47:36.484Z,97814.72
2022-11-30T14:52:57.806Z,97811.59
2022-11-30T14:58:14.924Z,97815.78
2022-11-30T15:03:40.644Z,97826.69
2022-11-30T15:08:51.888Z,97825.81
2022-11-30T15:14:09.097Z,97824.34
2022-11-30T15:19:33.077Z,97831.56
2022-11-30T15:24:38.264Z,97828.78
2022-11-30T15:29:46.860Z,97834.38
2022-11-30T15:34:56.818Z,97831.84
2022-11-30T15:40:02.634Z,97846.06
2022-11-30T15:45:19.256Z,97851.16
2022-11-30T15:50:29.345Z,97854.81
2022-11-30T15:55:49.367Z,97867.13
2022-11-30T16:01:06.625Z,97868.66
2022-11-30T16:06:19.487Z,97886.97
2022-11-30T16:11:22.979Z,97880.22
2022-11-30T16:16:30.862Z,97887.69
2022-11-30T16:21:36.713Z,97906.81
2022-11-30T16:26:51.043Z,97908.13
2022-11-30T16:31:55.454Z,97913.75
2022-11-30T16:36:59.128Z,97916.94
2022-11-30T16:42:02.601Z,97929.59
2022-11-30T16:47:07.758Z,97929.00
2022-11-30T16:52:17.319Z,97934.66
2022-11-30T16:57:20.919Z,97936.44
2022-11-30T17:02:24.666Z,97937.19
2022-11-30T17:07:28.479Z,97932.25
2022-11-30T17:12:32.307Z,97938.16
2022-11-30T17:17:35.747Z,97938.38
2022-11-30T17:22:39.312Z,97941.88
2022-11-30T17:27:43.234Z,97947.25
2022-11-30T17:32:47.391Z,97949.97
2022-11-30T17:37:53.704Z,97948.31
2022-11-30T17:42:58.216Z,97960.41
2022-11-30T17:48:01.906Z,97958.53
2022-11-30T17:53:05.367Z,97950.91
2022-11-30T17:58:08.763Z,97949.06
2022-11-30T18:03:11.998Z,97962.75
2022-11-30T18:08:17.249Z,97963.56
2022-11-30T18:13:20.714Z,97953.88
2022-11-30T18:18:24.032Z,97966.53
2022-11-30T18:23:27.237Z,97959.97
2022-11-30T18:28:32.423Z,97955.19
2022-11-30T18:33:37.233Z,97960.31
2022-11-30T18:38:40.795Z,97960.31
2022-11-30T18:43:46.940Z,97953.53
2022-11-30T18:48:53.015Z,97955.06
2022-11-30T18:53:59.879Z,97968.19
2022-11-30T18:59:10.767Z,97970.31
2022-11-30T19:04:14.499Z,97972.44
2022-11-30T19:09:19.927Z,97964.81
2022-11-30T19:14:24.495Z,97970.56
2022-11-30T19:19:29.293Z,97972.44
2022-11-30T19:24:32.989Z,97976.75
2022-11-30T19:29:36.550Z,97982.16
2022-11-30T19:34:41.473Z,97986.72
2022-11-30T19:39:46.476Z,97995.13
2022-11-30T19:44:51.369Z,97995.63
2022-11-30T19:49:55.817Z,97989.88
2022-11-30T19:55:00.298Z,98005.22
2022-11-30T20:00:06.291Z,98003.59
2022-11-30T20:05:20.267Z,97995.50
2022-11-30T20:10:27.714Z,97988.50
2022-11-30T20:15:34.177Z,97987.44
2022-11-30T20:20:38.912Z,97983.34
2022-11-30T20:25:42.382Z,97976.91
2022-11-30T20:30:47.636Z,97976.91
2022-11-30T20:35:52.254Z,97978.53
2022-11-30T20:40:56.784Z,97960.38
2022-11-30T20:46:00.277Z,97971.75
2022-11-30T20:51:30.254Z,97978.44
2022-11-30T20:56:36.439Z,97977.84
2022-11-30T21:01:42.822Z,97986.50
2022-11-30T21:06:46.697Z,97997.03
2022-11-30T21:11:50.472Z,97998.09
2022-11-30T21:16:53.813Z,98003.97
2022-11-30T21:21:57.325Z,97993.91
2022-11-30T21:27:00.969Z,97998.22
2022-11-30T21:32:05.156Z,98000.34
2022-11-30T21:37:08.571Z,97995.66
2022-11-30T21:42:12.110Z,97999.16
2022-11-30T21:47:15.631Z,98006.91
2022-11-30T21:52:19.904Z,98011.69
2022-11-30T21:57:23.601Z,98012.44
2022-11-30T22:02:26.943Z,97996.94
2022-11-30T22:07:30.293Z,98001.75
2022-11-30T22:12:33.702Z,98012.53
2022-11-30T22:17:37.239Z,98008.41
2022-11-30T22:22:40.823Z,98010.78
2022-11-30T22:27:44.358Z,98003.72
2022-11-30T22:32:47.645Z,98002.91
2022-11-30T22:37:51.028Z,98005.03
2022-11-30T22:42:54.762Z,98006.66
2022-11-30T22:47:58.178Z,98013.69
2022-11-30T22:53:03.284Z,98013.09
2022-11-30T22:58:07.581Z,98016.38
2022-11-30T23:03:14.499Z,98012.28
2022-11-30T23:08:21.397Z,98010.66
2022-11-30T23:13:25.911Z,97998.03
2022-11-30T23:18:30.689Z,98005.03
2022-11-30T23:23:34.277Z,97996.97
2022-11-30T23:28:37.828Z,97990.53
2022-11-30T23:33:42.075Z,97992.16
2022-11-30T23:38:46.892Z,97981.75
2022-11-30T23:43:50.352Z,97986.44
2022-11-30T23:48:53.725Z,97989.25
2022-11-30T23:53:57.012Z,97994.03
2022-11-30T23:59:00.334Z,97995.28
